Time;durP1;ratioP1;P1;durP2;ratioP2;P2;SDS_P1;SDS_P2;PMS_P1;PMS_P2;Temp;Humidity;BMP_temperature;BMP_pressure;BME280_temperature;BME280_humidity;BME280_pressure;Samples;Min_cycle;Max_cycle;Signal;HPM_P1;HPM_P2
2021/12/03 00:01:12;;;;;;;2.62;0.93;;;;;;;9.11;63.95;101298.62;1876909;75;21458;-60
2021/12/03 00:03:41;;;;;;;1.60;0.90;;;;;;;9.14;63.67;101319.57;1902655;74;21063;-61
2021/12/03 00:06:11;;;;;;;1.10;0.90;;;;;;;9.20;63.24;101307.59;1902749;75;21039;-60
2021/12/03 00:08:40;;;;;;;0.70;0.68;;;;;;;9.26;63.15;101302.20;1871913;74;21041;-60
2021/12/03 00:11:11;;;;;;;4.22;1.00;;;;;;;9.27;63.03;101303.91;1870137;77;21025;-61
2021/12/03 00:13:41;;;;;;;2.35;0.70;;;;;;;9.21;63.13;101298.36;1870026;77;21041;-61
2021/12/03 00:16:12;;;;;;;2.87;0.78;;;;;;;9.17;63.66;101305.06;1869488;77;21036;-63
2021/12/03 00:18:41;;;;;;;3.70;0.80;;;;;;;9.14;63.69;101303.34;1868970;77;21040;-61
2021/12/03 00:21:11;;;;;;;3.35;1.10;;;;;;;9.15;63.92;101301.15;1868826;77;21641;-61
2021/12/03 00:23:41;;;;;;;4.70;1.05;;;;;;;9.19;64.13;101298.00;1868887;77;21122;-61
2021/12/03 00:26:10;;;;;;;3.42;0.65;;;;;;;9.20;64.01;101295.77;1868642;77;21568;-61
2021/12/03 00:28:40;;;;;;;2.87;0.85;;;;;;;9.17;64.09;101296.72;1868735;76;21114;-61
2021/12/03 00:31:09;;;;;;;4.28;0.90;;;;;;;9.11;64.03;101296.88;1868897;77;21044;-61
2021/12/03 00:33:39;;;;;;;3.12;0.80;;;;;;;9.05;64.21;101287.80;1868788;77;21431;-61
2021/12/03 00:36:10;;;;;;;7.35;0.90;;;;;;;9.08;64.77;101290.38;1868838;77;21032;-60
2021/12/03 00:38:42;;;;;;;3.22;1.02;;;;;;;9.13;64.67;101278.00;1868933;77;21048;-61
2021/12/03 00:41:15;;;;;;;3.60;0.90;;;;;;;9.15;64.52;101273.56;1839245;77;21059;-61
2021/12/03 00:43:46;;;;;;;3.10;0.80;;;;;;;9.19;64.55;101284.41;1839265;78;21082;-61
2021/12/03 00:46:17;;;;;;;2.30;1.02;;;;;;;9.20;64.50;101282.62;1839330;78;21136;-61
2021/12/03 00:48:49;;;;;;;4.55;1.10;;;;;;;9.20;64.53;101278.26;1839303;77;21139;-60
2021/12/03 00:57:57;;;;;;;1.50;0.88;;;;;;;9.27;64.87;101290.31;1848727;78;21089;-62
2021/12/03 01:04:07;;;;;;;3.00;1.05;;;;;;;9.20;65.04;101283.52;1853509;77;21078;-61
2021/12/03 01:10:18;;;;;;;4.85;1.07;;;;;;;9.16;65.16;101285.78;1854616;77;21053;-61
2021/12/03 01:16:17;;;;;;;6.90;1.07;;;;;;;9.24;65.46;101273.33;1854945;77;21152;-59
2021/12/03 01:22:26;;;;;;;4.95;1.47;;;;;;;9.25;65.59;101275.04;1854895;77;21127;-59
2021/12/03 01:28:25;;;;;;;1.55;0.93;;;;;;;9.21;65.60;101264.20;1824404;79;21061;-61
2021/12/03 01:34:36;;;;;;;1.75;0.72;;;;;;;9.22;65.79;101272.52;1824369;79;21552;-62
2021/12/03 01:40:46;;;;;;;7.55;1.22;;;;;;;9.21;65.68;101281.28;1854783;77;21057;-60
2021/12/03 01:46:55;;;;;;;4.03;1.00;;;;;;;9.27;65.68;101271.92;1853383;77;21200;-61
2021/12/03 01:53:06;;;;;;;2.70;0.98;;;;;;;9.29;65.37;101277.14;1852289;77;21132;-61
2021/12/03 01:58:52;;;;;;;0.88;0.50;;;;;;;9.36;64.68;101281.34;1832218;78;21079;-61
2021/12/03 02:07:51;;;;;;;1.50;0.75;;;;;;;9.35;64.33;101289.27;1860738;77;21516;-61
2021/12/03 02:10:23;;;;;;;0.90;0.60;;;;;;;9.33;64.50;101273.53;1794146;80;21504;-61
2021/12/03 02:12:52;;;;;;;3.85;0.95;;;;;;;9.31;64.52;101271.86;1854819;76;21038;-61
2021/12/03 02:15:22;;;;;;;4.20;0.82;;;;;;;9.32;64.43;101279.70;1823844;78;21027;-61
2021/12/03 02:17:50;;;;;;;5.08;2.10;;;;;;;9.36;64.21;101287.06;1790046;80;21562;-60
2021/12/03 02:20:20;;;;;;;1.52;0.72;;;;;;;9.37;64.13;101295.34;1823078;79;21031;-60
2021/12/03 02:22:50;;;;;;;1.47;0.70;;;;;;;9.38;63.89;101290.05;1790364;79;21048;-61
2021/12/03 02:25:22;;;;;;;6.20;0.98;;;;;;;9.39;63.94;101286.53;1854430;77;21037;-62
2021/12/03 02:27:54;;;;;;;4.12;1.10;;;;;;;9.34;64.13;101273.95;1824864;77;21139;-59
2021/12/03 02:30:23;;;;;;;1.52;0.70;;;;;;;9.34;64.12;101298.06;1789811;80;21554;-59
2021/12/03 02:32:53;;;;;;;3.80;0.88;;;;;;;9.38;64.07;101291.83;1857723;77;21532;-59
2021/12/03 02:35:24;;;;;;;1.55;0.68;;;;;;;9.37;64.18;101287.45;1857772;77;21053;-59
2021/12/03 02:37:53;;;;;;;2.62;0.55;;;;;;;9.40;64.05;101291.33;1823560;78;21700;-59
2021/12/03 02:40:24;;;;;;;1.80;0.53;;;;;;;9.39;64.10;101301.45;1861669;75;21203;-59
2021/12/03 02:42:54;;;;;;;1.95;0.85;;;;;;;9.39;64.16;101308.02;1862889;77;21046;-60
2021/12/03 02:45:23;;;;;;;3.55;0.70;;;;;;;9.36;64.14;101314.20;1865122;77;21480;-59
2021/12/03 02:47:52;;;;;;;5.33;0.72;;;;;;;9.32;63.99;101314.33;1869430;77;21562;-61
2021/12/03 02:50:21;;;;;;;5.35;1.00;;;;;;;9.33;63.83;101309.47;1869306;77;21135;-61
2021/12/03 02:52:51;;;;;;;5.45;1.22;;;;;;;9.32;63.76;101329.64;1869410;77;21479;-61
2021/12/03 02:55:21;;;;;;;0.75;0.68;;;;;;;9.30;63.79;101321.39;1868855;77;21457;-61
2021/12/03 02:57:50;;;;;;;1.90;0.70;;;;;;;9.24;63.86;101325.89;1869405;77;21061;-61
2021/12/03 03:00:21;;;;;;;2.00;0.55;;;;;;;9.27;63.67;101340.70;1869511;77;21468;-61
2021/12/03 03:02:50;;;;;;;1.75;0.68;;;;;;;9.25;63.60;101336.80;1854502;77;21468;-60
2021/12/03 03:05:22;;;;;;;2.50;0.68;;;;;;;9.22;63.67;101334.27;1823125;78;21150;-61
2021/12/03 03:07:52;;;;;;;2.65;0.78;;;;;;;9.18;63.95;101344.87;1813987;79;21087;-60
2021/12/03 03:10:25;;;;;;;3.70;0.78;;;;;;;9.20;63.94;101332.55;1855955;77;21548;-58
2021/12/03 03:12:55;;;;;;;1.90;0.80;;;;;;;9.25;63.50;101340.73;1887907;76;21070;-59
2021/12/03 03:15:24;;;;;;;3.70;0.80;;;;;;;9.34;63.37;101346.69;1875219;76;21476;-61
2021/12/03 03:17:52;;;;;;;0.75;0.75;;;;;;;9.31;63.42;101350.70;1875260;76;21473;-61
2021/12/03 03:20:21;;;;;;;3.12;0.70;;;;;;;9.24;63.47;101356.11;1873578;76;21469;-62
2021/12/03 03:22:51;;;;;;;0.65;0.50;;;;;;;9.23;63.67;101351.73;1863966;77;21528;-62
2021/12/03 03:25:21;;;;;;;1.60;0.80;;;;;;;9.20;63.75;101364.08;1870757;76;21038;-59
2021/12/03 03:27:50;;;;;;;5.17;0.82;;;;;;;9.19;63.94;101355.34;1875198;76;21117;-60
2021/12/03 03:30:19;;;;;;;3.40;0.90;;;;;;;9.20;63.91;101342.63;1875338;76;21092;-60
2021/12/03 03:32:50;;;;;;;4.60;0.90;;;;;;;9.19;63.85;101348.78;1875347;76;21019;-60
2021/12/03 03:35:18;;;;;;;3.37;1.02;;;;;;;9.15;63.93;101350.18;1875333;76;21042;-60
2021/12/03 03:37:48;;;;;;;4.58;0.90;;;;;;;9.12;64.04;101348.95;1865057;76;21154;-61
2021/12/03 03:40:18;;;;;;;3.12;0.80;;;;;;;9.10;64.04;101350.30;1863936;77;21080;-61
2021/12/03 03:42:47;;;;;;;3.15;0.80;;;;;;;9.11;63.97;101348.11;1863995;77;21119;-61
2021/12/03 03:45:18;;;;;;;1.47;0.75;;;;;;;9.11;63.76;101350.73;1863992;77;21659;-61
2021/12/03 03:47:47;;;;;;;4.28;1.32;;;;;;;9.10;63.79;101358.19;1843718;78;21630;-61
2021/12/03 03:50:18;;;;;;;2.83;0.80;;;;;;;9.10;63.83;101356.02;1843763;78;21622;-60
2021/12/03 03:52:49;;;;;;;2.00;0.80;;;;;;;9.07;63.79;101357.82;1866011;77;21061;-61
2021/12/03 03:55:19;;;;;;;2.12;0.93;;;;;;;9.00;63.75;101364.11;1834007;78;21056;-65
2021/12/03 03:57:49;;;;;;;3.62;1.05;;;;;;;8.97;63.88;101367.25;1862720;76;21109;-62
2021/12/03 04:00:21;;;;;;;4.62;1.22;;;;;;;8.94;63.98;101370.79;1887783;76;21132;-60
2021/12/03 04:02:50;;;;;;;5.08;0.80;;;;;;;8.93;64.14;101372.13;1887607;76;21504;-61
2021/12/03 04:05:19;;;;;;;3.80;0.93;;;;;;;8.94;64.29;101368.63;1887664;76;21062;-62
2021/12/03 04:07:48;;;;;;;4.60;0.93;;;;;;;9.04;64.33;101368.39;1876267;76;21583;-61
2021/12/03 04:10:17;;;;;;;3.58;2.08;;;;;;;9.07;64.21;101367.44;1862749;76;21148;-61
2021/12/03 04:12:46;;;;;;;2.20;0.90;;;;;;;9.11;64.30;101369.13;1862835;77;21582;-61
2021/12/03 04:15:16;;;;;;;3.17;1.00;;;;;;;9.08;64.07;101362.61;1862791;77;21519;-63
2021/12/03 04:17:45;;;;;;;2.50;0.82;;;;;;;9.06;64.30;101369.67;1862770;76;21042;-65
2021/12/03 04:20:16;;;;;;;5.08;0.80;;;;;;;9.05;64.33;101365.30;1862796;77;21171;-65
2021/12/03 04:22:45;;;;;;;5.28;0.90;;;;;;;9.07;64.63;101360.88;1862718;77;21026;-64
2021/12/03 04:25:17;;;;;;;1.37;0.93;;;;;;;9.17;64.71;101366.34;1862810;76;21497;-65
2021/12/03 04:27:46;;;;;;;3.27;0.90;;;;;;;9.26;64.57;101358.24;1862791;77;21117;-62
2021/12/03 04:30:18;;;;;;;5.30;0.80;;;;;;;9.31;64.51;101363.83;1862825;76;21481;-61
2021/12/03 04:32:46;;;;;;;3.95;0.72;;;;;;;9.30;64.77;101358.19;1862663;77;21080;-61
2021/12/03 04:35:15;;;;;;;3.47;1.15;;;;;;;9.35;64.79;101351.03;1862807;77;21124;-61
2021/12/03 04:37:44;;;;;;;3.40;0.90;;;;;;;9.38;64.87;101362.79;1862816;76;21065;-61
2021/12/03 04:40:15;;;;;;;4.78;1.20;;;;;;;9.40;64.80;101369.72;1862791;76;21057;-60
2021/12/03 04:42:44;;;;;;;3.35;1.00;;;;;;;9.41;64.72;101360.95;1863004;77;21160;-61
2021/12/03 04:45:18;;;;;;;1.30;0.80;;;;;;;9.43;64.73;101370.98;1862904;77;21153;-61
2021/12/03 04:47:48;;;;;;;2.30;0.88;;;;;;;9.48;64.81;101364.31;1862882;77;21109;-61
2021/12/03 04:50:19;;;;;;;2.30;0.90;;;;;;;9.51;64.80;101375.19;1862472;77;21074;-62
2021/12/03 04:52:48;;;;;;;5.53;1.10;;;;;;;9.57;65.35;101353.56;1862880;77;21100;-60
2021/12/03 04:55:18;;;;;;;6.10;1.30;;;;;;;9.62;65.15;101352.97;1862796;76;21461;-60
2021/12/03 04:57:53;;;;;;;4.97;0.72;;;;;;;9.63;65.13;101352.09;1862652;77;21638;-65
2021/12/03 05:00:33;;;;;;;1.05;0.78;;;;;;;9.63;65.19;101361.28;1861305;77;21046;-64
2021/12/03 05:03:02;;;;;;;2.98;0.80;;;;;;;9.70;65.43;101358.49;1862950;77;21140;-60
2021/12/03 05:05:33;;;;;;;2.22;0.80;;;;;;;9.73;65.45;101359.73;1862884;77;21042;-61
2021/12/03 05:08:13;;;;;;;2.30;1.20;;;;;;;9.77;65.43;101366.64;1859325;77;21098;-61
2021/12/03 05:10:36;;;;;;;2.95;0.70;;;;;;;9.76;65.49;101386.83;1845956;77;21489;-61
2021/12/03 05:13:08;;;;;;;5.53;1.30;;;;;;;9.77;65.48;101367.95;1849416;77;21145;-60
2021/12/03 05:15:38;;;;;;;2.75;1.20;;;;;;;9.86;65.43;101351.47;1849041;77;21503;-62
2021/12/03 05:18:08;;;;;;;4.12;0.82;;;;;;;10.07;65.13;101358.84;1849083;77;21104;-59
2021/12/03 05:20:37;;;;;;;4.12;1.02;;;;;;;10.36;64.62;101367.28;1848967;77;21500;-59
2021/12/03 05:23:06;;;;;;;5.15;0.80;;;;;;;10.50;64.19;101370.40;1849055;76;21531;-59
2021/12/03 05:25:35;;;;;;;1.10;1.00;;;;;;;10.54;63.88;101360.64;1849129;77;21070;-60
2021/12/03 05:28:05;;;;;;;4.37;1.40;;;;;;;10.87;62.90;101363.19;1849122;77;21485;-60
2021/12/03 05:30:34;;;;;;;1.62;0.85;;;;;;;10.81;62.71;101361.14;1849124;77;21030;-60
2021/12/03 05:33:04;;;;;;;3.92;1.07;;;;;;;10.66;62.74;101364.67;1848938;77;21164;-61
2021/12/03 05:35:33;;;;;;;2.42;1.02;;;;;;;10.52;63.10;101376.48;1849270;77;21014;-61
2021/12/03 05:38:03;;;;;;;5.85;1.20;;;;;;;10.43;63.46;101341.20;1849054;77;21528;-60
2021/12/03 05:40:32;;;;;;;2.98;1.15;;;;;;;10.37;63.64;101380.41;1849111;77;21446;-59
2021/12/03 05:43:01;;;;;;;3.05;1.10;;;;;;;10.32;63.71;101371.77;1849125;77;21531;-59
2021/12/03 05:45:33;;;;;;;2.20;1.10;;;;;;;10.29;63.80;101374.48;1848972;77;21156;-60
2021/12/03 05:48:02;;;;;;;4.78;1.17;;;;;;;10.28;63.80;101381.95;1849113;77;21124;-60
2021/12/03 05:50:31;;;;;;;5.37;1.05;;;;;;;10.31;63.77;101377.96;1849221;77;21050;-61
2021/12/03 05:53:00;;;;;;;3.60;1.42;;;;;;;10.32;63.70;101376.19;1849110;77;21046;-60
2021/12/03 05:55:29;;;;;;;3.37;1.20;;;;;;;10.32;63.69;101379.67;1847649;77;21014;-59
2021/12/03 05:57:58;;;;;;;4.17;1.30;;;;;;;10.34;63.68;101387.06;1849025;77;21096;-59
2021/12/03 06:00:30;;;;;;;1.80;1.27;;;;;;;10.35;63.65;101388.81;1849132;77;21504;-59
2021/12/03 06:03:00;;;;;;;4.65;1.45;;;;;;;10.37;63.65;101384.82;1849124;77;21163;-60
2021/12/03 06:05:30;;;;;;;4.97;1.40;;;;;;;10.40;63.53;101396.56;1849136;77;21492;-60
2021/12/03 06:07:59;;;;;;;2.75;0.80;;;;;;;10.41;63.48;101387.31;1849130;77;21058;-60
2021/12/03 06:10:28;;;;;;;3.17;1.22;;;;;;;10.45;63.26;101388.55;1848967;77;21480;-61
2021/12/03 06:12:57;;;;;;;2.65;1.67;;;;;;;10.49;63.19;101383.60;1849116;77;21559;-60
2021/12/03 06:15:26;;;;;;;2.10;1.20;;;;;;;10.58;63.06;101391.23;1849116;77;21481;-60
2021/12/03 06:17:56;;;;;;;3.33;1.12;;;;;;;10.64;62.88;101397.63;1849024;77;21082;-60
2021/12/03 06:20:25;;;;;;;3.02;1.22;;;;;;;10.86;62.62;101371.98;1849103;77;21542;-60
2021/12/03 06:22:54;;;;;;;3.25;1.50;;;;;;;12.12;60.38;101411.48;1849057;77;21441;-61
2021/12/03 06:25:23;;;;;;;2.12;0.82;;;;;;;13.13;57.33;101407.74;1849110;77;21470;-61
2021/12/03 06:27:56;;;;;;;5.17;2.17;;;;;;;13.84;56.64;101414.16;1849033;77;21523;-61
2021/12/03 06:30:24;;;;;;;2.12;1.00;;;;;;;14.25;54.39;101397.43;1849079;76;21058;-61
2021/12/03 06:32:55;;;;;;;2.17;0.95;;;;;;;14.71;54.12;101408.65;1849060;77;21116;-62
2021/12/03 06:35:24;;;;;;;7.17;1.50;;;;;;;15.27;51.94;101409.59;1848970;77;21006;-61
2021/12/03 06:37:53;;;;;;;3.02;0.93;;;;;;;15.65;51.23;101428.08;1849122;77;21042;-61
2021/12/03 06:40:24;;;;;;;3.02;1.70;;;;;;;15.98;50.44;101428.22;1849064;77;21445;-61
2021/12/03 06:42:54;;;;;;;3.10;0.80;;;;;;;16.11;49.12;101413.84;1849000;77;21057;-61
2021/12/03 06:45:23;;;;;;;3.12;1.22;;;;;;;16.48;49.05;101416.37;1849090;77;21468;-61
2021/12/03 06:47:52;;;;;;;2.05;0.93;;;;;;;16.70;47.70;101416.09;1849081;77;21057;-61
2021/12/03 06:50:23;;;;;;;2.12;0.82;;;;;;;16.81;47.38;101414.19;1848993;77;21693;-62
2021/12/03 06:53:05;;;;;;;2.70;1.02;;;;;;;16.95;46.67;101416.50;1849076;77;21119;-61
2021/12/03 06:55:23;;;;;;;3.92;1.15;;;;;;;17.16;46.88;101416.25;1845996;77;21174;-62
2021/12/03 06:57:52;;;;;;;5.28;1.20;;;;;;;17.32;45.99;101418.44;1849007;77;21163;-60
2021/12/03 07:00:22;;;;;;;5.35;1.20;;;;;;;17.55;45.71;101413.59;1849013;77;21062;-59
2021/12/03 07:02:51;;;;;;;2.47;1.02;;;;;;;17.81;45.07;101414.73;1849127;77;21151;-63
2021/12/03 07:05:20;;;;;;;1.90;0.95;;;;;;;18.16;44.63;101399.82;1849079;77;21046;-63
2021/12/03 07:07:50;;;;;;;1.70;0.72;;;;;;;18.06;43.51;101412.84;1849079;77;21034;-60
2021/12/03 07:10:19;;;;;;;2.83;0.93;;;;;;;18.02;43.62;101406.00;1848987;77;21051;-60
2021/12/03 07:12:48;;;;;;;3.80;1.20;;;;;;;18.28;42.88;101420.89;1845842;77;21088;-58
2021/12/03 07:15:17;;;;;;;5.03;1.00;;;;;;;18.26;42.64;101400.11;1843678;77;21013;-60
2021/12/03 07:17:50;;;;;;;6.10;1.15;;;;;;;18.26;42.52;101413.44;1849219;77;21547;-58
2021/12/03 07:20:17;;;;;;;2.98;0.90;;;;;;;18.57;42.16;101398.23;1849093;77;21120;-58
2021/12/03 07:22:46;;;;;;;4.03;1.05;;;;;;;18.66;41.91;101405.17;1848812;77;21525;-59
2021/12/03 07:25:16;;;;;;;3.02;0.95;;;;;;;18.83;41.81;101404.17;1847957;77;21531;-58
2021/12/03 07:27:45;;;;;;;4.08;1.40;;;;;;;18.92;40.73;101409.86;1848786;77;21054;-58
2021/12/03 07:30:16;;;;;;;4.15;1.32;;;;;;;18.65;40.53;101389.30;1849067;77;21104;-58
2021/12/03 07:32:45;;;;;;;2.47;1.12;;;;;;;18.73;40.40;101397.66;1847575;77;21165;-58
2021/12/03 07:35:15;;;;;;;2.50;1.20;;;;;;;18.64;40.54;101389.75;1847308;78;21120;-59
2021/12/03 07:37:44;;;;;;;4.03;1.15;;;;;;;18.84;40.48;101397.02;1837767;77;21058;-62
2021/12/03 07:40:15;;;;;;;4.87;1.20;;;;;;;19.07;40.08;101397.74;1836611;77;21509;-64
2021/12/03 07:42:44;;;;;;;2.27;1.10;;;;;;;19.12;39.70;101408.11;1843101;77;21013;-64
2021/12/03 07:45:16;;;;;;;5.87;1.17;;;;;;;19.33;39.67;101400.98;1847532;77;21484;-62
2021/12/03 07:47:44;;;;;;;3.75;1.15;;;;;;;19.93;39.25;101397.05;1848942;77;21085;-62
2021/12/03 07:50:14;;;;;;;1.87;1.00;;;;;;;20.36;38.48;101407.44;1849079;77;21488;-63
2021/12/03 07:52:43;;;;;;;4.60;1.50;;;;;;;20.20;37.97;101406.33;1848954;77;21493;-62
2021/12/03 07:55:12;;;;;;;4.50;1.40;;;;;;;20.31;37.69;101407.77;1849064;77;21497;-61
2021/12/03 07:57:41;;;;;;;2.75;0.95;;;;;;;19.72;38.68;101412.69;1849023;76;21445;-62
2021/12/03 08:00:10;;;;;;;2.42;1.07;;;;;;;19.85;38.10;101417.61;1849060;77;21528;-63
2021/12/03 08:02:42;;;;;;;3.70;1.03;;;;;;;19.93;37.75;101418.42;1838326;77;21149;-62
2021/12/03 08:05:11;;;;;;;2.35;1.32;;;;;;;20.02;37.71;101415.12;1843082;76;21290;-65
2021/12/03 08:07:40;;;;;;;5.65;1.17;;;;;;;20.33;37.26;101431.74;1844922;76;21057;-61
2021/12/03 08:10:10;;;;;;;3.90;1.45;;;;;;;20.42;36.72;101415.05;1852690;76;21156;-61
2021/12/03 08:12:40;;;;;;;5.15;1.42;;;;;;;20.20;36.97;101403.16;1893090;76;21044;-60
2021/12/03 08:15:10;;;;;;;1.72;0.85;;;;;;;20.53;37.16;101404.94;1893408;75;21017;-62
2021/12/03 08:17:40;;;;;;;6.00;1.40;;;;;;;20.76;36.37;101413.54;1898832;75;21488;-63
2021/12/03 08:20:11;;;;;;;4.78;1.20;;;;;;;20.85;36.23;101395.12;1899918;75;21135;-60
2021/12/03 08:22:41;;;;;;;3.10;0.90;;;;;;;21.13;36.19;101403.34;1899899;75;21115;-61
2021/12/03 08:25:11;;;;;;;1.57;0.90;;;;;;;21.09;35.88;101398.69;1899888;75;21121;-61
2021/12/03 08:27:41;;;;;;;2.65;0.95;;;;;;;21.03;35.76;101401.83;1923638;74;21465;-61
2021/12/03 08:30:12;;;;;;;3.70;1.20;;;;;;;21.56;35.17;101395.70;1927434;74;20990;-61
2021/12/03 08:32:42;;;;;;;4.00;1.27;;;;;;;21.61;34.88;101395.83;1897598;74;20998;-68
2021/12/03 08:35:11;;;;;;;1.10;1.00;;;;;;;21.91;34.44;101380.56;1893306;75;21120;-64
2021/12/03 08:37:45;;;;;;;2.22;1.00;;;;;;;21.47;33.90;101395.05;1875326;75;21035;-66
2021/12/03 08:40:12;;;;;;;4.53;1.10;;;;;;;21.05;34.62;101369.09;1893038;75;21112;-66
2021/12/03 08:42:41;;;;;;;3.00;1.00;;;;;;;21.33;34.69;101380.45;1892357;75;21006;-61
2021/12/03 08:45:10;;;;;;;3.30;1.15;;;;;;;21.59;33.77;101382.05;1899990;75;21089;-61
2021/12/03 08:47:40;;;;;;;5.12;1.00;;;;;;;21.15;34.48;101374.12;1902395;74;21514;-59
2021/12/03 08:50:16;;;;;;;2.47;1.00;;;;;;;20.90;34.76;101375.09;1899833;75;21139;-60
2021/12/03 08:55:31;;;;;;;6.30;1.22;;;;;;;21.36;34.23;101353.45;1899711;75;21026;-60
2021/12/03 08:58:00;;;;;;;4.42;1.00;;;;;;;21.87;34.14;101349.11;1895450;74;21487;-58
2021/12/03 09:00:33;;;;;;;2.15;1.00;;;;;;;22.18;33.32;101358.80;1899892;75;21109;-58
2021/12/03 09:03:01;;;;;;;4.95;1.37;;;;;;;21.92;32.98;101336.22;1900062;74;21120;-58
2021/12/03 09:05:31;;;;;;;2.98;1.00;;;;;;;21.91;33.44;101343.91;1877556;75;21037;-62
2021/12/03 09:08:00;;;;;;;2.20;1.00;;;;;;;21.88;33.44;101339.27;1899776;75;21131;-61
2021/12/03 09:10:29;;;;;;;5.87;1.05;;;;;;;21.98;33.19;101345.14;1898776;74;21476;-61
2021/12/03 09:12:58;;;;;;;2.85;1.00;;;;;;;21.92;33.09;101322.81;1862095;76;21046;-61
2021/12/03 09:15:36;;;;;;;5.17;1.17;;;;;;;21.91;32.91;101347.05;1862039;77;21041;-61
2021/12/03 09:25:48;;;;;;;3.47;1.00;;;;;;;21.92;32.76;101339.39;1858222;75;21021;-62
2021/12/03 09:28:12;;;;;;;3.25;1.00;;;;;;;21.75;33.30;101343.38;1862135;77;21046;-61
2021/12/03 09:30:43;;;;;;;3.27;1.10;;;;;;;22.16;33.14;101335.27;1861945;77;21098;-62
2021/12/03 09:33:15;;;;;;;3.15;0.98;;;;;;;22.33;32.76;101333.47;1862228;77;21065;-61
2021/12/03 09:35:48;;;;;;;2.50;1.62;;;;;;;22.42;32.56;101332.39;1862140;77;21210;-61
2021/12/03 09:38:16;;;;;;;3.02;1.27;;;;;;;22.32;32.71;101332.28;1862066;76;21108;-61
2021/12/03 09:40:46;;;;;;;1.55;1.05;;;;;;;22.10;32.81;101327.72;1862126;77;21468;-61
2021/12/03 09:43:15;;;;;;;3.92;1.12;;;;;;;21.92;33.01;101318.78;1862141;77;21066;-62
2021/12/03 09:45:56;;;;;;;4.50;1.20;;;;;;;22.12;33.09;101319.06;1862112;77;21069;-62
2021/12/03 09:48:32;;;;;;;3.55;1.10;;;;;;;22.00;32.82;101306.61;1861835;77;21111;-61
2021/12/03 09:50:47;;;;;;;3.08;1.00;;;;;;;21.48;33.58;101304.80;1861620;77;21151;-61
2021/12/03 09:53:52;;;;;;;3.65;1.35;;;;;;;21.26;33.93;101317.09;1862119;77;21057;-61
2021/12/03 09:55:58;;;;;;;4.30;1.00;;;;;;;21.07;33.80;101302.91;1860881;77;21049;-61
2021/12/03 09:58:48;;;;;;;3.62;0.90;;;;;;;21.31;33.97;101296.68;1862103;77;21073;-61
2021/12/03 10:01:26;;;;;;;3.33;1.20;;;;;;;21.62;33.50;101299.25;1861741;76;21115;-61
2021/12/03 10:09:48;;;;;;;4.10;1.10;;;;;;;21.52;33.06;101289.70;1862369;77;21222;-61
2021/12/03 10:11:45;;;;;;;5.85;1.30;;;;;;;21.43;33.19;101276.98;1862947;75;21054;-61
2021/12/03 10:17:56;;;;;;;4.42;1.07;;;;;;;21.88;32.76;101278.45;1847291;78;21222;-61
2021/12/03 10:20:13;;;;;;;3.42;1.27;;;;;;;22.27;32.01;101272.77;1825122;77;21022;-61
2021/12/03 10:23:53;;;;;;;2.80;0.85;;;;;;;21.83;31.89;101277.95;1847375;77;21049;-61
2021/12/03 10:36:28;;;;;;;2.87;1.00;;;;;;;21.85;31.61;101263.94;1847440;78;21030;-61
2021/12/03 10:44:26;;;;;;;1.65;0.75;;;;;;;20.11;33.69;101276.81;1847532;78;21148;-61
2021/12/03 10:49:24;;;;;;;2.10;1.10;;;;;;;20.26;32.95;101274.88;1847336;78;21105;-61
2021/12/03 10:51:54;;;;;;;1.45;0.90;;;;;;;20.21;33.00;101271.66;1845966;77;21128;-61
2021/12/03 11:04:04;;;;;;;4.20;0.90;;;;;;;20.38;33.23;101286.03;1847262;77;21457;-62
2021/12/03 11:12:14;;;;;;;7.60;1.10;;;;;;;19.67;34.54;101239.33;1847264;78;21078;-61
2021/12/03 11:20:22;;;;;;;7.78;1.00;;;;;;;18.65;36.68;101264.78;1885210;75;21054;-60
2021/12/03 11:51:29;;;;;;;3.15;0.88;;;;;;;16.72;41.17;101267.47;1897617;75;21013;-60
2021/12/03 11:57:06;;;;;;;;;;;;;;;16.71;41.42;101272.88;1861650;77;21437;-60
2021/12/03 12:19:14;;;;;;;5.40;0.82;;;;;;;14.48;47.09;101279.83;1874893;76;21083;-59
2021/12/03 13:17:53;;;;;;;2.60;0.90;;;;;;;12.20;55.90;101281.37;1847087;77;21143;-60
2021/12/03 14:00:56;;;;;;;2.87;1.10;;;;;;;11.46;59.41;101338.02;1837613;76;21129;-57
2021/12/03 14:06:38;;;;;;;3.47;1.25;;;;;;;11.38;60.58;101308.42;1852382;77;21033;-58
2021/12/03 14:39:13;;;;;;;9.08;1.40;;;;;;;11.01;61.37;101319.70;1847258;78;21220;-62
2021/12/03 14:41:56;;;;;;;8.00;1.47;;;;;;;10.99;61.77;101325.91;1844287;76;21094;-62
2021/12/03 14:44:25;;;;;;;5.62;1.30;;;;;;;10.94;61.81;101318.63;1853663;77;21023;-62
2021/12/03 14:52:20;;;;;;;3.40;0.95;;;;;;;10.87;61.95;101323.20;1798423;78;21098;-59
2021/12/03 15:08:36;;;;;;;2.47;0.88;;;;;;;10.78;62.41;101328.77;1817320;79;21053;-64
2021/12/03 15:14:24;;;;;;;3.30;1.15;;;;;;;10.76;62.68;101326.17;1817574;79;21512;-62
2021/12/03 15:19:22;;;;;;;4.55;0.90;;;;;;;10.73;62.82;101326.72;1840102;77;21089;-64
2021/12/03 15:30:16;;;;;;;4.00;1.27;;;;;;;10.68;63.04;101336.52;1819828;78;21066;-62
2021/12/03 15:35:36;;;;;;;3.87;1.15;;;;;;;10.70;63.27;101339.53;1831048;77;21081;-65
2021/12/03 15:55:14;;;;;;;4.95;1.77;;;;;;;10.73;63.82;101328.88;1852519;77;21151;-65
2021/12/03 15:57:56;;;;;;;2.35;1.20;;;;;;;10.76;63.92;101327.95;1852522;77;21121;-65
2021/12/03 16:06:09;;;;;;;4.33;1.22;;;;;;;10.78;64.01;101333.56;1815765;78;21051;-64
2021/12/03 16:08:15;;;;;;;2.92;1.20;;;;;;;10.76;64.27;101327.48;1813178;78;21058;-64
2021/12/03 16:13:52;;;;;;;3.80;1.42;;;;;;;10.82;64.49;101316.75;1815767;79;21050;-65
2021/12/03 16:46:21;;;;;;;3.87;1.42;;;;;;;10.75;64.61;101315.67;1816886;77;21044;-61
2021/12/03 16:49:29;;;;;;;6.40;1.60;;;;;;;10.73;64.65;101310.45;1820750;78;21155;-61
2021/12/03 16:54:07;;;;;;;4.85;1.35;;;;;;;10.72;64.70;101306.57;1837058;78;21078;-63
2021/12/03 16:56:37;;;;;;;1.90;1.02;;;;;;;10.76;64.73;101319.59;1838216;78;21043;-62
2021/12/03 16:59:06;;;;;;;4.97;1.50;;;;;;;10.80;64.35;101316.41;1839575;78;21133;-63
2021/12/03 17:01:40;;;;;;;4.37;1.32;;;;;;;10.80;64.22;101308.03;1840329;78;21261;-63
2021/12/03 17:04:25;;;;;;;1.87;1.05;;;;;;;10.78;64.08;101298.00;1841849;77;21104;-70
2021/12/03 17:23:14;;;;;;;2.20;1.20;;;;;;;10.81;63.17;101344.02;1843307;78;21045;-62
2021/12/03 17:30:47;;;;;;;2.47;1.20;;;;;;;10.73;63.45;101347.32;1843583;77;21021;-62
2021/12/03 17:57:29;;;;;;;2.90;1.70;;;;;;;10.61;63.55;101303.80;1793017;80;21106;-64
2021/12/03 17:59:45;;;;;;;3.17;1.27;;;;;;;10.62;63.45;101306.84;1843816;77;21047;-65
2021/12/03 18:05:03;;;;;;;3.85;1.25;;;;;;;10.61;63.11;101306.89;1844712;77;21043;-64
2021/12/03 18:07:34;;;;;;;3.92;1.60;;;;;;;10.67;62.75;101305.84;1847317;77;21040;-61
2021/12/03 18:16:09;;;;;;;2.30;1.37;;;;;;;10.69;62.80;101290.39;1850130;77;21043;-64
2021/12/03 18:54:17;;;;;;;5.53;2.20;;;;;;;10.53;61.50;101314.14;1818194;76;21148;-62
2021/12/03 18:56:42;;;;;;;6.78;2.00;;;;;;;10.54;61.25;101314.09;1816508;78;21054;-63
2021/12/03 18:59:07;;;;;;;4.53;1.67;;;;;;;10.55;61.05;101320.22;1809666;78;21184;-64
2021/12/03 19:01:36;;;;;;;6.40;1.45;;;;;;;10.62;60.30;101317.38;1810972;79;21156;-64
2021/12/03 19:04:14;;;;;;;3.47;1.45;;;;;;;10.72;59.85;101316.64;1810972;79;21556;-65
2021/12/03 19:06:42;;;;;;;3.67;1.62;;;;;;;10.81;59.62;101324.27;1809795;79;21517;-63
2021/12/03 19:09:14;;;;;;;3.42;1.32;;;;;;;10.86;59.42;101311.39;1812799;79;21252;-60
2021/12/03 19:11:58;;;;;;;2.85;1.50;;;;;;;10.90;59.16;101307.75;1814300;79;21038;-62
2021/12/03 19:14:23;;;;;;;3.30;1.05;;;;;;;10.92;58.79;101296.70;1815343;79;21073;-65
2021/12/03 19:16:52;;;;;;;2.95;1.40;;;;;;;10.95;58.55;101286.93;1815209;78;21556;-64
2021/12/03 19:19:21;;;;;;;4.62;1.37;;;;;;;11.01;57.94;101306.52;1812902;78;21592;-64
2021/12/03 19:21:53;;;;;;;3.58;1.75;;;;;;;11.12;57.15;101300.91;1814446;79;21150;-64
2021/12/03 19:24:22;;;;;;;3.40;1.75;;;;;;;11.18;56.96;101310.39;1816603;79;21111;-64
2021/12/03 19:26:51;;;;;;;5.40;1.50;;;;;;;11.22;56.85;101304.56;1802451;79;21071;-62
2021/12/03 19:29:23;;;;;;;4.78;1.55;;;;;;;11.26;56.16;101328.59;1816720;78;21122;-65
2021/12/03 19:31:53;;;;;;;3.52;1.62;;;;;;;11.37;55.77;101301.41;1816173;78;21176;-61
2021/12/03 19:34:23;;;;;;;2.87;1.42;;;;;;;11.39;55.96;101296.94;1815576;78;21107;-63
2021/12/03 19:36:54;;;;;;;3.85;1.47;;;;;;;11.39;55.92;101291.67;1808340;79;21467;-63